Terminal Aerodrome Forecast
Issued by NWS

Home | Current Version | Previous Version | Text Only | Print | Product List | Glossary On
Versions: 1 2 3 4 5 6 7 8 9 10 11 12 13 14 15 16 17 18 19 20 21 22 23 24 25 26 27 28 29 30
712
FTUS41 KBUF 290917 AAA
TAFJHW
TAF AMD
KJHW 290917Z 2909/3006 36005KT 4SM BR BKN003
     FM291000 35005KT P6SM BKN012
     FM291200 35007KT P6SM SCT035 SCT250
     FM300200 05007KT P6SM SCT150
      AMD LTD TO CLD VIS AND WIND=

USA.gov is the U.S. government's official web portal to all federal, state and local government web resources and services.